Impacts METAR Board
IDs:

KPDX - Portland Intl Arpt, OR, US

Updated at: 1900 UTC 23 Jun 2018
Potential Impact None Slight Moderate High
Time 23/07Z 23/08Z 23/09Z 23/10Z 23/11Z 23/12Z 23/13Z 23/14Z 23/15Z 23/16Z 23/17Z 23/18Z 23/19Z
Temp62 61 60 60 60 59 60 60 59 63 64 66 68
Dewpt53 53 53 53 53 53 54 54 55 54 52 52 51
Altim30.14 30.14 30.14 30.16 30.16 30.15 30.15 30.16 30.18 30.18 30.18 30.18 30.17
VIS10 10 10 10 10 10 10 10 5 10 10 10 10
CIG55 -- -- 37 36 37 43 27 21 31 30 47 49
CoverBKNSCTSCTBKNBKNBKNOVCBKNOVCBKNBKNBKNBKN
FltCatVFRVFRVFRVFRVFRVFRVFRMVFRMVFRVFRMVFRVFRVFR
WX---------------DZ-RA BR--------
WDir3403203500000302003200330
WSpd7 6 3 0 0 0 0 3 4 0 3 3 5
WGst-- -- -- -- -- -- -- -- -- -- -- -- --
Raw hourly METARs
KPDX 230653Z 34007KT 10SM BKN055 BKN060 17/12 A3014 RMK AO2 RAB0554E04 SLP206 P0000 T01670117
KPDX 230753Z 32006KT 10SM SCT065 16/12 A3014 RMK AO2 SLP207 T01610117 402440156
KPDX 230853Z 35003KT 10SM SCT060 16/12 A3014 RMK AO2 SLP206 60000 T01560117 51001
KPDX 230953Z 00000KT 10SM BKN037 BKN060 16/12 A3016 RMK AO2 SLP210 T01560117
KPDX 231053Z 00000KT 10SM BKN036 16/12 A3016 RMK AO2 SLP210 T01560117
KPDX 231153Z 00000KT 10SM BKN037 15/12 A3015 RMK AO2 SLP210 60000 T01500117 10178 20150 50003
KPDX 231253Z 00000KT 10SM SCT020 BKN043 OVC050 16/12 A3015 RMK AO2 SLP208 T01560122
KPDX 231353Z 03003KT 10SM -DZ SCT017 BKN027 16/12 A3016 RMK AO2 DZB50 SLP212 P0000 T01560122
KPDX 231453Z 02004KT 5SM -RA BR SCT010 BKN021 OVC033 15/13 A3018 RMK AO2 DZE38RAB44 SLP217 P0000 60000 T01500128 53008
KPDX 231553Z 00000KT 10SM FEW010 SCT026 BKN031 17/12 A3018 RMK AO2 RAE1456DZB13E30 SLP217 P0000 T01720122
KPDX 231653Z 32003KT 10SM SCT025 BKN030 BKN044 18/11 A3018 RMK AO2 SLP217 T01780111
KPDX 231753Z VRB03KT 10SM SCT030 BKN047 19/11 A3018 RMK AO2 SLP218 60000 T01890111 10194 20150 53000
KPDX 231853Z 33005KT 10SM SCT031 BKN049 20/11 A3017 RMK AO2 SLP217 T02000106



Page loaded:  19:31 UTC  |   12:31 PM Pacific  |   01:31 PM Mountain  |   02:31 PM Central  |   03:31 PM Eastern

 

ADVISORIES

FORECASTS

FORECASTS

OBSERVATIONS

USER TOOLS

ABOUT US